sensor_id;sensor_type;location;lat;lon;timestamp;P1;durP1;ratioP1;P2;durP2;ratioP2
35522;SDS011;61478;50.820;4.330;2022-12-26T00:00:53;8.38;;;6.65;;
35522;SDS011;61478;50.820;4.330;2022-12-26T00:03:20;12.10;;;7.20;;
35522;SDS011;61478;50.820;4.330;2022-12-26T00:05:46;9.38;;;7.05;;
35522;SDS011;61478;50.820;4.330;2022-12-26T00:08:12;7.70;;;6.72;;
35522;SDS011;61478;50.820;4.330;2022-12-26T00:10:37;7.43;;;6.57;;
35522;SDS011;61478;50.820;4.330;2022-12-26T00:13:03;7.90;;;5.97;;
35522;SDS011;61478;50.820;4.330;2022-12-26T00:15:29;6.47;;;5.60;;
35522;SDS011;61478;50.820;4.330;2022-12-26T00:17:55;8.60;;;6.55;;
35522;SDS011;61478;50.820;4.330;2022-12-26T00:20:21;9.00;;;7.22;;
35522;SDS011;61478;50.820;4.330;2022-12-26T00:22:47;8.15;;;6.85;;
35522;SDS011;61478;50.820;4.330;2022-12-26T00:25:12;7.57;;;6.82;;
35522;SDS011;61478;50.820;4.330;2022-12-26T00:27:38;9.10;;;6.72;;
35522;SDS011;61478;50.820;4.330;2022-12-26T00:30:04;11.57;;;8.40;;
35522;SDS011;61478;50.820;4.330;2022-12-26T00:32:30;7.95;;;6.85;;
35522;SDS011;61478;50.820;4.330;2022-12-26T00:34:56;9.68;;;6.93;;
35522;SDS011;61478;50.820;4.330;2022-12-26T00:37:22;12.35;;;7.43;;
35522;SDS011;61478;50.820;4.330;2022-12-26T00:39:48;13.02;;;7.80;;
35522;SDS011;61478;50.820;4.330;2022-12-26T00:42:13;12.52;;;7.05;;
35522;SDS011;61478;50.820;4.330;2022-12-26T00:44:39;14.10;;;8.77;;
35522;SDS011;61478;50.820;4.330;2022-12-26T00:47:05;12.52;;;9.68;;
35522;SDS011;61478;50.820;4.330;2022-12-26T00:49:31;13.38;;;10.02;;
35522;SDS011;61478;50.820;4.330;2022-12-26T00:51:57;16.92;;;10.40;;
35522;SDS011;61478;50.820;4.330;2022-12-26T00:54:22;15.32;;;10.80;;
35522;SDS011;61478;50.820;4.330;2022-12-26T00:56:48;12.68;;;10.07;;
35522;SDS011;61478;50.820;4.330;2022-12-26T00:59:15;14.77;;;11.27;;
35522;SDS011;61478;50.820;4.330;2022-12-26T01:01:41;17.27;;;11.30;;
35522;SDS011;61478;50.820;4.330;2022-12-26T01:04:07;19.17;;;14.02;;
35522;SDS011;61478;50.820;4.330;2022-12-26T01:06:32;21.23;;;12.73;;
35522;SDS011;61478;50.820;4.330;2022-12-26T01:08:58;18.70;;;13.10;;
35522;SDS011;61478;50.820;4.330;2022-12-26T01:11:24;21.40;;;15.02;;
35522;SDS011;61478;50.820;4.330;2022-12-26T01:14:06;20.38;;;13.93;;
35522;SDS011;61478;50.820;4.330;2022-12-26T01:16:37;21.77;;;13.80;;
35522;SDS011;61478;50.820;4.330;2022-12-26T01:19:04;21.33;;;14.73;;
35522;SDS011;61478;50.820;4.330;2022-12-26T01:21:31;16.67;;;12.40;;
35522;SDS011;61478;50.820;4.330;2022-12-26T01:23:57;16.08;;;11.73;;
35522;SDS011;61478;50.820;4.330;2022-12-26T01:26:22;19.10;;;12.50;;
35522;SDS011;61478;50.820;4.330;2022-12-26T01:28:48;17.05;;;12.23;;
35522;SDS011;61478;50.820;4.330;2022-12-26T01:31:15;15.45;;;11.25;;
35522;SDS011;61478;50.820;4.330;2022-12-26T01:33:42;12.88;;;9.65;;
35522;SDS011;61478;50.820;4.330;2022-12-26T01:36:07;18.17;;;12.52;;
35522;SDS011;61478;50.820;4.330;2022-12-26T01:38:33;12.40;;;8.48;;
35522;SDS011;61478;50.820;4.330;2022-12-26T01:40:59;12.82;;;9.63;;
35522;SDS011;61478;50.820;4.330;2022-12-26T01:43:51;11.60;;;8.57;;
35522;SDS011;61478;50.820;4.330;2022-12-26T01:46:21;9.52;;;7.80;;
35522;SDS011;61478;50.820;4.330;2022-12-26T01:48:54;8.73;;;7.13;;
35522;SDS011;61478;50.820;4.330;2022-12-26T01:51:23;8.15;;;7.32;;
35522;SDS011;61478;50.820;4.330;2022-12-26T01:53:52;7.15;;;6.28;;
35522;SDS011;61478;50.820;4.330;2022-12-26T01:56:23;7.70;;;6.47;;
35522;SDS011;61478;50.820;4.330;2022-12-26T01:59:02;9.35;;;6.55;;
35522;SDS011;61478;50.820;4.330;2022-12-26T02:01:36;7.70;;;6.43;;
35522;SDS011;61478;50.820;4.330;2022-12-26T02:04:04;6.85;;;5.97;;
35522;SDS011;61478;50.820;4.330;2022-12-26T02:06:50;6.55;;;5.45;;
35522;SDS011;61478;50.820;4.330;2022-12-26T02:09:16;7.10;;;6.00;;
35522;SDS011;61478;50.820;4.330;2022-12-26T02:11:44;6.68;;;5.47;;
35522;SDS011;61478;50.820;4.330;2022-12-26T02:14:15;6.15;;;5.03;;
35522;SDS011;61478;50.820;4.330;2022-12-26T02:16:40;9.82;;;5.55;;
35522;SDS011;61478;50.820;4.330;2022-12-26T02:19:09;5.78;;;5.20;;
35522;SDS011;61478;50.820;4.330;2022-12-26T02:22:01;6.13;;;5.40;;
35522;SDS011;61478;50.820;4.330;2022-12-26T02:30:25;4.88;;;4.30;;
35522;SDS011;61478;50.820;4.330;2022-12-26T02:41:44;3.78;;;3.17;;
35522;SDS011;61478;50.820;4.330;2022-12-26T02:44:58;4.07;;;3.22;;
35522;SDS011;61478;50.820;4.330;2022-12-26T02:51:05;3.50;;;2.45;;
35522;SDS011;61478;50.820;4.330;2022-12-26T02:57:10;2.78;;;2.40;;
35522;SDS011;61478;50.820;4.330;2022-12-26T03:00:02;4.30;;;2.50;;
35522;SDS011;61478;50.820;4.330;2022-12-26T03:03:09;2.63;;;2.42;;
35522;SDS011;61478;50.820;4.330;2022-12-26T03:08:55;2.80;;;2.30;;
35522;SDS011;61478;50.820;4.330;2022-12-26T03:11:44;5.45;;;2.58;;
35522;SDS011;61478;50.820;4.330;2022-12-26T03:14:35;3.30;;;3.00;;
35522;SDS011;61478;50.820;4.330;2022-12-26T03:17:10;5.72;;;3.50;;
35522;SDS011;61478;50.820;4.330;2022-12-26T03:22:36;5.35;;;3.88;;
35522;SDS011;61478;50.820;4.330;2022-12-26T03:25:47;7.22;;;5.35;;
35522;SDS011;61478;50.820;4.330;2022-12-26T03:28:27;5.53;;;4.68;;
35522;SDS011;61478;50.820;4.330;2022-12-26T03:30:55;7.93;;;5.38;;
35522;SDS011;61478;50.820;4.330;2022-12-26T03:33:26;6.57;;;5.13;;
35522;SDS011;61478;50.820;4.330;2022-12-26T03:36:12;5.85;;;4.78;;
35522;SDS011;61478;50.820;4.330;2022-12-26T03:39:33;4.88;;;4.38;;
35522;SDS011;61478;50.820;4.330;2022-12-26T03:42:22;4.55;;;4.15;;
35522;SDS011;61478;50.820;4.330;2022-12-26T03:45:17;7.22;;;3.90;;
35522;SDS011;61478;50.820;4.330;2022-12-26T03:51:06;11.40;;;6.13;;
35522;SDS011;61478;50.820;4.330;2022-12-26T03:54:20;5.30;;;4.03;;
35522;SDS011;61478;50.820;4.330;2022-12-26T03:57:24;5.40;;;3.75;;
35522;SDS011;61478;50.820;4.330;2022-12-26T04:00:18;5.03;;;3.55;;
35522;SDS011;61478;50.820;4.330;2022-12-26T04:03:07;6.20;;;3.67;;
35522;SDS011;61478;50.820;4.330;2022-12-26T04:05:56;4.93;;;3.50;;
35522;SDS011;61478;50.820;4.330;2022-12-26T04:08:57;5.25;;;3.42;;
35522;SDS011;61478;50.820;4.330;2022-12-26T04:11:50;3.90;;;3.50;;
35522;SDS011;61478;50.820;4.330;2022-12-26T04:17:33;8.27;;;3.67;;
35522;SDS011;61478;50.820;4.330;2022-12-26T04:20:29;4.38;;;3.10;;
35522;SDS011;61478;50.820;4.330;2022-12-26T04:23:10;5.43;;;3.58;;
35522;SDS011;61478;50.820;4.330;2022-12-26T04:26:02;4.18;;;2.95;;
35522;SDS011;61478;50.820;4.330;2022-12-26T04:28:51;5.80;;;3.13;;
35522;SDS011;61478;50.820;4.330;2022-12-26T04:32:00;3.85;;;2.78;;
35522;SDS011;61478;50.820;4.330;2022-12-26T04:34:44;3.65;;;3.00;;
35522;SDS011;61478;50.820;4.330;2022-12-26T04:37:34;3.88;;;3.08;;
35522;SDS011;61478;50.820;4.330;2022-12-26T04:40:23;5.30;;;2.90;;
35522;SDS011;61478;50.820;4.330;2022-12-26T04:43:12;3.72;;;2.88;;
35522;SDS011;61478;50.820;4.330;2022-12-26T04:45:58;2.95;;;2.60;;
35522;SDS011;61478;50.820;4.330;2022-12-26T04:48:25;4.97;;;2.50;;
35522;SDS011;61478;50.820;4.330;2022-12-26T04:51:09;3.27;;;2.40;;
35522;SDS011;61478;50.820;4.330;2022-12-26T04:53:35;3.10;;;2.47;;
35522;SDS011;61478;50.820;4.330;2022-12-26T04:56:01;2.80;;;2.45;;
35522;SDS011;61478;50.820;4.330;2022-12-26T04:58:27;3.28;;;2.13;;
35522;SDS011;61478;50.820;4.330;2022-12-26T05:00:53;3.92;;;2.42;;
35522;SDS011;61478;50.820;4.330;2022-12-26T05:03:38;3.05;;;2.20;;
35522;SDS011;61478;50.820;4.330;2022-12-26T05:06:23;3.45;;;2.25;;
35522;SDS011;61478;50.820;4.330;2022-12-26T05:09:08;3.97;;;2.40;;
35522;SDS011;61478;50.820;4.330;2022-12-26T05:11:54;5.85;;;2.72;;
35522;SDS011;61478;50.820;4.330;2022-12-26T05:14:20;2.15;;;1.80;;
35522;SDS011;61478;50.820;4.330;2022-12-26T05:16:49;3.00;;;1.92;;
35522;SDS011;61478;50.820;4.330;2022-12-26T05:19:33;2.65;;;1.90;;
35522;SDS011;61478;50.820;4.330;2022-12-26T05:22:18;2.22;;;1.60;;
35522;SDS011;61478;50.820;4.330;2022-12-26T05:27:48;4.90;;;2.40;;
35522;SDS011;61478;50.820;4.330;2022-12-26T05:30:32;3.80;;;1.90;;
35522;SDS011;61478;50.820;4.330;2022-12-26T05:32:58;2.47;;;1.83;;
35522;SDS011;61478;50.820;4.330;2022-12-26T05:35:42;3.92;;;1.75;;
35522;SDS011;61478;50.820;4.330;2022-12-26T05:38:08;3.45;;;1.55;;
35522;SDS011;61478;50.820;4.330;2022-12-26T05:40:35;2.65;;;1.50;;
35522;SDS011;61478;50.820;4.330;2022-12-26T05:43:01;5.15;;;1.80;;
35522;SDS011;61478;50.820;4.330;2022-12-26T05:45:26;2.22;;;1.60;;
35522;SDS011;61478;50.820;4.330;2022-12-26T05:47:59;4.70;;;1.60;;
35522;SDS011;61478;50.820;4.330;2022-12-26T05:50:25;4.95;;;2.38;;
35522;SDS011;61478;50.820;4.330;2022-12-26T05:52:51;3.58;;;1.65;;
35522;SDS011;61478;50.820;4.330;2022-12-26T05:55:17;4.85;;;1.50;;
35522;SDS011;61478;50.820;4.330;2022-12-26T05:57:43;4.18;;;2.00;;
35522;SDS011;61478;50.820;4.330;2022-12-26T06:00:09;2.72;;;1.60;;
35522;SDS011;61478;50.820;4.330;2022-12-26T06:02:36;3.95;;;1.58;;
35522;SDS011;61478;50.820;4.330;2022-12-26T06:05:02;2.20;;;1.73;;
35522;SDS011;61478;50.820;4.330;2022-12-26T06:07:28;8.63;;;1.83;;
35522;SDS011;61478;50.820;4.330;2022-12-26T06:09:57;2.13;;;1.30;;
35522;SDS011;61478;50.820;4.330;2022-12-26T06:12:23;4.10;;;1.45;;
35522;SDS011;61478;50.820;4.330;2022-12-26T06:14:49;4.20;;;1.45;;
35522;SDS011;61478;50.820;4.330;2022-12-26T06:17:15;3.47;;;1.10;;
35522;SDS011;61478;50.820;4.330;2022-12-26T06:19:41;3.05;;;1.88;;
35522;SDS011;61478;50.820;4.330;2022-12-26T06:22:07;3.53;;;1.50;;
35522;SDS011;61478;50.820;4.330;2022-12-26T06:24:33;4.72;;;1.40;;
35522;SDS011;61478;50.820;4.330;2022-12-26T06:26:59;4.13;;;1.65;;
35522;SDS011;61478;50.820;4.330;2022-12-26T06:29:25;6.85;;;1.55;;
35522;SDS011;61478;50.820;4.330;2022-12-26T06:31:51;3.08;;;1.65;;
35522;SDS011;61478;50.820;4.330;2022-12-26T06:34:16;6.78;;;1.45;;
35522;SDS011;61478;50.820;4.330;2022-12-26T06:36:43;6.57;;;1.33;;
35522;SDS011;61478;50.820;4.330;2022-12-26T06:39:09;4.20;;;1.88;;
35522;SDS011;61478;50.820;4.330;2022-12-26T06:41:35;3.50;;;2.00;;
35522;SDS011;61478;50.820;4.330;2022-12-26T06:44:01;3.28;;;1.50;;
35522;SDS011;61478;50.820;4.330;2022-12-26T06:46:27;6.47;;;1.77;;
35522;SDS011;61478;50.820;4.330;2022-12-26T06:48:53;4.20;;;1.50;;
35522;SDS011;61478;50.820;4.330;2022-12-26T06:51:20;3.45;;;1.50;;
35522;SDS011;61478;50.820;4.330;2022-12-26T06:53:48;4.13;;;1.23;;
35522;SDS011;61478;50.820;4.330;2022-12-26T06:56:15;5.40;;;1.45;;
35522;SDS011;61478;50.820;4.330;2022-12-26T06:58:58;3.22;;;1.35;;
35522;SDS011;61478;50.820;4.330;2022-12-26T07:01:26;3.67;;;1.95;;
35522;SDS011;61478;50.820;4.330;2022-12-26T07:03:54;2.38;;;1.40;;
35522;SDS011;61478;50.820;4.330;2022-12-26T07:08:45;3.70;;;1.58;;
35522;SDS011;61478;50.820;4.330;2022-12-26T07:11:12;5.97;;;1.60;;
35522;SDS011;61478;50.820;4.330;2022-12-26T07:13:48;2.78;;;1.45;;
35522;SDS011;61478;50.820;4.330;2022-12-26T07:16:14;3.55;;;1.13;;
35522;SDS011;61478;50.820;4.330;2022-12-26T07:18:40;2.83;;;1.20;;
35522;SDS011;61478;50.820;4.330;2022-12-26T07:21:07;3.97;;;0.95;;
35522;SDS011;61478;50.820;4.330;2022-12-26T07:23:34;4.05;;;1.10;;
35522;SDS011;61478;50.820;4.330;2022-12-26T07:26:00;5.13;;;1.40;;
35522;SDS011;61478;50.820;4.330;2022-12-26T07:28:26;4.45;;;1.13;;
35522;SDS011;61478;50.820;4.330;2022-12-26T07:30:52;4.35;;;1.50;;
35522;SDS011;61478;50.820;4.330;2022-12-26T07:33:18;4.65;;;1.60;;
35522;SDS011;61478;50.820;4.330;2022-12-26T07:35:44;6.03;;;1.70;;
35522;SDS011;61478;50.820;4.330;2022-12-26T07:38:10;9.68;;;2.08;;
35522;SDS011;61478;50.820;4.330;2022-12-26T07:40:37;6.13;;;1.98;;
35522;SDS011;61478;50.820;4.330;2022-12-26T07:43:03;3.10;;;1.23;;
35522;SDS011;61478;50.820;4.330;2022-12-26T07:45:29;5.00;;;1.58;;
35522;SDS011;61478;50.820;4.330;2022-12-26T07:47:55;5.07;;;1.98;;
35522;SDS011;61478;50.820;4.330;2022-12-26T07:50:22;3.40;;;1.23;;
35522;SDS011;61478;50.820;4.330;2022-12-26T07:52:49;7.35;;;1.50;;
35522;SDS011;61478;50.820;4.330;2022-12-26T07:55:14;6.22;;;1.70;;
35522;SDS011;61478;50.820;4.330;2022-12-26T07:57:40;9.32;;;2.22;;
35522;SDS011;61478;50.820;4.330;2022-12-26T08:00:06;3.72;;;1.30;;
35522;SDS011;61478;50.820;4.330;2022-12-26T08:02:33;6.43;;;2.05;;
35522;SDS011;61478;50.820;4.330;2022-12-26T08:04:58;6.47;;;2.05;;
35522;SDS011;61478;50.820;4.330;2022-12-26T08:07:24;6.65;;;2.15;;
35522;SDS011;61478;50.820;4.330;2022-12-26T08:09:50;7.38;;;1.88;;
35522;SDS011;61478;50.820;4.330;2022-12-26T08:12:16;8.65;;;1.70;;
35522;SDS011;61478;50.820;4.330;2022-12-26T08:14:45;10.48;;;2.67;;
35522;SDS011;61478;50.820;4.330;2022-12-26T08:17:12;9.93;;;2.10;;
35522;SDS011;61478;50.820;4.330;2022-12-26T08:19:37;10.35;;;2.20;;
35522;SDS011;61478;50.820;4.330;2022-12-26T08:22:04;5.05;;;1.15;;
35522;SDS011;61478;50.820;4.330;2022-12-26T08:24:29;6.25;;;1.35;;
35522;SDS011;61478;50.820;4.330;2022-12-26T08:26:55;6.45;;;2.15;;
35522;SDS011;61478;50.820;4.330;2022-12-26T08:29:21;6.75;;;1.65;;
35522;SDS011;61478;50.820;4.330;2022-12-26T08:31:47;8.38;;;2.83;;
35522;SDS011;61478;50.820;4.330;2022-12-26T08:34:13;16.83;;;3.35;;
35522;SDS011;61478;50.820;4.330;2022-12-26T08:36:39;9.45;;;2.55;;
35522;SDS011;61478;50.820;4.330;2022-12-26T08:39:05;5.47;;;1.85;;
35522;SDS011;61478;50.820;4.330;2022-12-26T08:41:31;5.78;;;1.77;;
35522;SDS011;61478;50.820;4.330;2022-12-26T08:43:57;7.88;;;1.25;;
35522;SDS011;61478;50.820;4.330;2022-12-26T08:46:23;7.70;;;1.65;;
35522;SDS011;61478;50.820;4.330;2022-12-26T08:48:49;13.50;;;1.65;;
35522;SDS011;61478;50.820;4.330;2022-12-26T08:51:17;7.05;;;1.75;;
35522;SDS011;61478;50.820;4.330;2022-12-26T08:53:47;7.05;;;2.53;;
35522;SDS011;61478;50.820;4.330;2022-12-26T08:56:15;6.63;;;1.58;;
35522;SDS011;61478;50.820;4.330;2022-12-26T08:58:44;3.78;;;1.42;;
35522;SDS011;61478;50.820;4.330;2022-12-26T09:01:18;9.48;;;2.63;;
35522;SDS011;61478;50.820;4.330;2022-12-26T09:03:53;8.88;;;2.78;;
35522;SDS011;61478;50.820;4.330;2022-12-26T09:06:21;5.72;;;1.75;;
35522;SDS011;61478;50.820;4.330;2022-12-26T09:08:48;11.10;;;3.03;;
35522;SDS011;61478;50.820;4.330;2022-12-26T09:11:24;13.88;;;3.20;;
35522;SDS011;61478;50.820;4.330;2022-12-26T09:13:51;8.05;;;1.80;;
35522;SDS011;61478;50.820;4.330;2022-12-26T09:16:18;14.43;;;2.80;;
35522;SDS011;61478;50.820;4.330;2022-12-26T09:18:47;9.18;;;3.33;;
35522;SDS011;61478;50.820;4.330;2022-12-26T09:21:16;15.23;;;2.65;;
35522;SDS011;61478;50.820;4.330;2022-12-26T09:23:42;8.20;;;2.40;;
35522;SDS011;61478;50.820;4.330;2022-12-26T09:26:10;11.48;;;3.30;;
35522;SDS011;61478;50.820;4.330;2022-12-26T09:28:41;16.52;;;2.75;;
35522;SDS011;61478;50.820;4.330;2022-12-26T09:31:09;17.55;;;4.28;;
35522;SDS011;61478;50.820;4.330;2022-12-26T09:33:37;11.40;;;3.22;;
35522;SDS011;61478;50.820;4.330;2022-12-26T09:36:07;7.55;;;1.90;;
35522;SDS011;61478;50.820;4.330;2022-12-26T09:38:35;10.30;;;3.42;;
35522;SDS011;61478;50.820;4.330;2022-12-26T09:41:17;12.82;;;3.03;;
35522;SDS011;61478;50.820;4.330;2022-12-26T09:49:35;7.05;;;2.60;;
35522;SDS011;61478;50.820;4.330;2022-12-26T09:54:59;20.58;;;3.97;;
35522;SDS011;61478;50.820;4.330;2022-12-26T09:57:39;10.40;;;2.90;;
35522;SDS011;61478;50.820;4.330;2022-12-26T10:00:28;11.65;;;2.70;;
35522;SDS011;61478;50.820;4.330;2022-12-26T10:03:01;12.23;;;2.72;;
35522;SDS011;61478;50.820;4.330;2022-12-26T10:05:30;7.40;;;1.77;;
35522;SDS011;61478;50.820;4.330;2022-12-26T10:08:23;13.30;;;2.72;;
35522;SDS011;61478;50.820;4.330;2022-12-26T10:11:18;7.15;;;2.72;;
35522;SDS011;61478;50.820;4.330;2022-12-26T10:14:12;10.60;;;2.10;;
35522;SDS011;61478;50.820;4.330;2022-12-26T10:24:39;5.65;;;2.15;;
35522;SDS011;61478;50.820;4.330;2022-12-26T10:27:08;8.02;;;1.83;;
35522;SDS011;61478;50.820;4.330;2022-12-26T10:29:40;7.70;;;2.10;;
35522;SDS011;61478;50.820;4.330;2022-12-26T10:32:13;9.73;;;2.85;;
35522;SDS011;61478;50.820;4.330;2022-12-26T10:34:46;4.43;;;1.63;;
35522;SDS011;61478;50.820;4.330;2022-12-26T10:42:29;8.07;;;2.20;;
35522;SDS011;61478;50.820;4.330;2022-12-26T10:45:10;9.60;;;2.67;;
35522;SDS011;61478;50.820;4.330;2022-12-26T10:47:49;17.42;;;3.03;;
35522;SDS011;61478;50.820;4.330;2022-12-26T10:50:17;16.42;;;3.05;;
35522;SDS011;61478;50.820;4.330;2022-12-26T10:52:45;11.27;;;2.97;;
35522;SDS011;61478;50.820;4.330;2022-12-26T10:55:15;9.35;;;2.25;;
35522;SDS011;61478;50.820;4.330;2022-12-26T10:57:49;8.63;;;2.08;;
35522;SDS011;61478;50.820;4.330;2022-12-26T11:00:26;11.73;;;2.35;;
35522;SDS011;61478;50.820;4.330;2022-12-26T11:03:06;17.00;;;2.75;;
35522;SDS011;61478;50.820;4.330;2022-12-26T11:05:39;8.07;;;2.22;;
35522;SDS011;61478;50.820;4.330;2022-12-26T11:08:18;12.27;;;2.47;;
35522;SDS011;61478;50.820;4.330;2022-12-26T11:10:46;8.80;;;2.25;;
35522;SDS011;61478;50.820;4.330;2022-12-26T11:13:48;8.43;;;2.08;;
35522;SDS011;61478;50.820;4.330;2022-12-26T11:16:30;12.18;;;2.60;;
35522;SDS011;61478;50.820;4.330;2022-12-26T11:18:59;6.70;;;1.85;;
35522;SDS011;61478;50.820;4.330;2022-12-26T11:21:26;8.20;;;1.60;;
35522;SDS011;61478;50.820;4.330;2022-12-26T11:24:10;9.02;;;1.40;;
35522;SDS011;61478;50.820;4.330;2022-12-26T11:26:43;11.40;;;1.75;;
35522;SDS011;61478;50.820;4.330;2022-12-26T11:31:39;4.78;;;1.52;;
35522;SDS011;61478;50.820;4.330;2022-12-26T11:34:08;8.10;;;1.70;;
35522;SDS011;61478;50.820;4.330;2022-12-26T11:36:43;9.60;;;1.60;;
35522;SDS011;61478;50.820;4.330;2022-12-26T11:39:27;5.95;;;1.50;;
35522;SDS011;61478;50.820;4.330;2022-12-26T11:41:55;6.90;;;1.80;;
35522;SDS011;61478;50.820;4.330;2022-12-26T11:44:28;4.25;;;1.52;;
35522;SDS011;61478;50.820;4.330;2022-12-26T11:46:57;5.38;;;1.60;;
35522;SDS011;61478;50.820;4.330;2022-12-26T11:49:45;8.57;;;1.85;;
35522;SDS011;61478;50.820;4.330;2022-12-26T11:54:59;13.80;;;1.98;;
35522;SDS011;61478;50.820;4.330;2022-12-26T11:57:28;13.93;;;2.47;;
35522;SDS011;61478;50.820;4.330;2022-12-26T12:00:18;10.02;;;2.30;;
35522;SDS011;61478;50.820;4.330;2022-12-26T12:02:46;13.63;;;2.22;;
35522;SDS011;61478;50.820;4.330;2022-12-26T12:05:19;14.68;;;2.60;;
35522;SDS011;61478;50.820;4.330;2022-12-26T12:13:20;14.13;;;4.43;;
35522;SDS011;61478;50.820;4.330;2022-12-26T12:18:53;21.83;;;8.90;;
35522;SDS011;61478;50.820;4.330;2022-12-26T12:26:50;16.05;;;5.80;;
35522;SDS011;61478;50.820;4.330;2022-12-26T12:29:48;27.20;;;7.82;;
35522;SDS011;61478;50.820;4.330;2022-12-26T12:32:39;9.88;;;2.60;;
35522;SDS011;61478;50.820;4.330;2022-12-26T12:56:50;13.55;;;3.45;;
35522;SDS011;61478;50.820;4.330;2022-12-26T12:59:27;21.58;;;3.22;;
35522;SDS011;61478;50.820;4.330;2022-12-26T13:02:09;11.35;;;2.25;;
35522;SDS011;61478;50.820;4.330;2022-12-26T13:07:53;13.50;;;3.20;;
35522;SDS011;61478;50.820;4.330;2022-12-26T13:10:31;9.77;;;2.20;;
35522;SDS011;61478;50.820;4.330;2022-12-26T13:12:59;10.50;;;2.28;;
35522;SDS011;61478;50.820;4.330;2022-12-26T13:15:45;11.18;;;2.42;;
35522;SDS011;61478;50.820;4.330;2022-12-26T13:18:21;10.02;;;2.38;;
35522;SDS011;61478;50.820;4.330;2022-12-26T13:20:52;13.98;;;2.80;;
35522;SDS011;61478;50.820;4.330;2022-12-26T13:23:35;11.98;;;2.92;;
35522;SDS011;61478;50.820;4.330;2022-12-26T13:26:28;14.20;;;2.53;;
35522;SDS011;61478;50.820;4.330;2022-12-26T13:29:06;11.73;;;2.38;;
35522;SDS011;61478;50.820;4.330;2022-12-26T13:31:41;18.48;;;4.00;;
35522;SDS011;61478;50.820;4.330;2022-12-26T13:34:09;16.98;;;2.90;;
35522;SDS011;61478;50.820;4.330;2022-12-26T13:36:44;15.80;;;2.72;;
35522;SDS011;61478;50.820;4.330;2022-12-26T13:44:46;16.05;;;4.03;;
35522;SDS011;61478;50.820;4.330;2022-12-26T13:47:31;14.13;;;3.08;;
35522;SDS011;61478;50.820;4.330;2022-12-26T14:01:10;20.23;;;2.95;;
35522;SDS011;61478;50.820;4.330;2022-12-26T14:04:02;10.20;;;2.22;;
35522;SDS011;61478;50.820;4.330;2022-12-26T14:10:04;11.38;;;3.00;;
35522;SDS011;61478;50.820;4.330;2022-12-26T14:12:58;25.23;;;3.08;;
35522;SDS011;61478;50.820;4.330;2022-12-26T14:18:49;14.88;;;3.28;;
35522;SDS011;61478;50.820;4.330;2022-12-26T14:21:44;9.65;;;3.63;;
35522;SDS011;61478;50.820;4.330;2022-12-26T14:27:28;15.63;;;4.55;;
35522;SDS011;61478;50.820;4.330;2022-12-26T14:30:16;11.73;;;2.78;;
35522;SDS011;61478;50.820;4.330;2022-12-26T14:33:15;11.43;;;3.20;;
35522;SDS011;61478;50.820;4.330;2022-12-26T14:36:04;11.32;;;2.83;;
35522;SDS011;61478;50.820;4.330;2022-12-26T14:41:28;18.65;;;4.57;;
35522;SDS011;61478;50.820;4.330;2022-12-26T14:44:54;15.15;;;3.90;;
35522;SDS011;61478;50.820;4.330;2022-12-26T14:47:41;14.43;;;2.63;;
35522;SDS011;61478;50.820;4.330;2022-12-26T14:58:41;21.65;;;2.75;;
35522;SDS011;61478;50.820;4.330;2022-12-26T15:20:00;15.00;;;2.88;;
35522;SDS011;61478;50.820;4.330;2022-12-26T15:33:42;10.75;;;2.55;;
35522;SDS011;61478;50.820;4.330;2022-12-26T15:36:41;13.38;;;2.67;;
35522;SDS011;61478;50.820;4.330;2022-12-26T15:50:21;11.10;;;3.38;;
35522;SDS011;61478;50.820;4.330;2022-12-26T15:56:24;16.70;;;3.90;;
35522;SDS011;61478;50.820;4.330;2022-12-26T16:02:02;24.33;;;5.63;;
35522;SDS011;61478;50.820;4.330;2022-12-26T16:04:48;22.90;;;6.63;;
35522;SDS011;61478;50.820;4.330;2022-12-26T16:07:43;11.93;;;4.03;;
35522;SDS011;61478;50.820;4.330;2022-12-26T16:12:58;19.20;;;5.47;;
35522;SDS011;61478;50.820;4.330;2022-12-26T16:15:25;15.20;;;3.53;;
35522;SDS011;61478;50.820;4.330;2022-12-26T16:17:51;18.70;;;5.60;;
35522;SDS011;61478;50.820;4.330;2022-12-26T16:20:35;15.82;;;4.22;;
35522;SDS011;61478;50.820;4.330;2022-12-26T16:23:20;18.35;;;4.75;;
35522;SDS011;61478;50.820;4.330;2022-12-26T16:25:49;13.13;;;3.45;;
35522;SDS011;61478;50.820;4.330;2022-12-26T16:28:24;18.08;;;4.45;;
35522;SDS011;61478;50.820;4.330;2022-12-26T16:30:58;14.88;;;4.30;;
35522;SDS011;61478;50.820;4.330;2022-12-26T16:33:28;13.88;;;3.58;;
35522;SDS011;61478;50.820;4.330;2022-12-26T16:36:06;18.80;;;4.18;;
35522;SDS011;61478;50.820;4.330;2022-12-26T16:38:34;17.83;;;4.18;;
35522;SDS011;61478;50.820;4.330;2022-12-26T16:41:18;18.83;;;4.13;;
35522;SDS011;61478;50.820;4.330;2022-12-26T16:43:52;15.98;;;3.90;;
35522;SDS011;61478;50.820;4.330;2022-12-26T16:46:23;17.70;;;7.28;;
35522;SDS011;61478;50.820;4.330;2022-12-26T16:48:54;16.15;;;4.30;;
35522;SDS011;61478;50.820;4.330;2022-12-26T16:51:38;23.48;;;5.05;;
35522;SDS011;61478;50.820;4.330;2022-12-26T16:54:14;22.15;;;4.78;;
35522;SDS011;61478;50.820;4.330;2022-12-26T16:56:50;13.68;;;5.30;;
35522;SDS011;61478;50.820;4.330;2022-12-26T16:59:21;33.60;;;15.60;;
35522;SDS011;61478;50.820;4.330;2022-12-26T17:01:55;21.88;;;8.40;;
35522;SDS011;61478;50.820;4.330;2022-12-26T17:04:24;23.33;;;7.65;;
35522;SDS011;61478;50.820;4.330;2022-12-26T17:07:02;19.73;;;6.60;;
35522;SDS011;61478;50.820;4.330;2022-12-26T17:09:42;23.05;;;7.70;;
35522;SDS011;61478;50.820;4.330;2022-12-26T17:12:21;17.75;;;7.32;;
35522;SDS011;61478;50.820;4.330;2022-12-26T17:14:52;22.13;;;5.88;;
35522;SDS011;61478;50.820;4.330;2022-12-26T17:19:49;20.75;;;7.45;;
35522;SDS011;61478;50.820;4.330;2022-12-26T17:22:20;19.08;;;8.55;;
35522;SDS011;61478;50.820;4.330;2022-12-26T17:24:47;19.30;;;6.93;;
35522;SDS011;61478;50.820;4.330;2022-12-26T17:27:25;20.35;;;5.72;;
35522;SDS011;61478;50.820;4.330;2022-12-26T17:29:52;16.83;;;7.40;;
35522;SDS011;61478;50.820;4.330;2022-12-26T17:32:31;26.63;;;10.50;;
35522;SDS011;61478;50.820;4.330;2022-12-26T17:35:09;22.17;;;6.43;;
35522;SDS011;61478;50.820;4.330;2022-12-26T17:37:48;17.10;;;4.80;;
35522;SDS011;61478;50.820;4.330;2022-12-26T17:42:54;11.05;;;4.38;;
35522;SDS011;61478;50.820;4.330;2022-12-26T17:45:34;21.08;;;9.07;;
35522;SDS011;61478;50.820;4.330;2022-12-26T17:48:04;25.65;;;9.32;;
35522;SDS011;61478;50.820;4.330;2022-12-26T17:50:31;18.10;;;6.03;;
35522;SDS011;61478;50.820;4.330;2022-12-26T17:55:54;20.70;;;6.88;;
35522;SDS011;61478;50.820;4.330;2022-12-26T17:58:24;18.33;;;7.22;;
35522;SDS011;61478;50.820;4.330;2022-12-26T18:00:56;25.42;;;7.40;;
35522;SDS011;61478;50.820;4.330;2022-12-26T18:03:23;20.83;;;7.70;;
35522;SDS011;61478;50.820;4.330;2022-12-26T18:05:49;23.38;;;7.47;;
35522;SDS011;61478;50.820;4.330;2022-12-26T18:08:37;21.23;;;8.25;;
35522;SDS011;61478;50.820;4.330;2022-12-26T18:11:04;26.23;;;7.43;;
35522;SDS011;61478;50.820;4.330;2022-12-26T18:13:31;22.45;;;6.40;;
35522;SDS011;61478;50.820;4.330;2022-12-26T18:15:57;19.85;;;6.55;;
35522;SDS011;61478;50.820;4.330;2022-12-26T18:18:26;28.10;;;6.95;;
35522;SDS011;61478;50.820;4.330;2022-12-26T18:21:08;25.17;;;5.87;;
35522;SDS011;61478;50.820;4.330;2022-12-26T18:23:35;19.38;;;6.45;;
35522;SDS011;61478;50.820;4.330;2022-12-26T18:26:03;23.08;;;7.50;;
35522;SDS011;61478;50.820;4.330;2022-12-26T18:28:39;21.73;;;6.68;;
35522;SDS011;61478;50.820;4.330;2022-12-26T18:31:05;22.00;;;7.90;;
35522;SDS011;61478;50.820;4.330;2022-12-26T18:33:31;18.83;;;6.85;;
35522;SDS011;61478;50.820;4.330;2022-12-26T18:35:57;19.42;;;6.28;;
35522;SDS011;61478;50.820;4.330;2022-12-26T18:38:22;17.00;;;5.65;;
35522;SDS011;61478;50.820;4.330;2022-12-26T18:40:49;13.38;;;5.30;;